KSLG

Smith Field Airport

Siloam Springs, Arkansas, USA
METAR KSLG 211422Z AUTO VRB03KT 5SM BR OVC004 19/19 A3011 RMK AO2 CIG 003V007
Observed Flight Rules
May-21 @ 14:22 UTC (33 minutes ago) Instrument Flight Rules
Wind Visibility Clouds Conditions
Variable at 3 knots 5 miles
  • Overcast at 400' AGL
  • Mist
Temperatures Readings
Current 19°C / 66°F
Dewpoint 19°C / 66°F
Humidity 100%
Altimeter 30.11" Hg
Pressure 1020 hPa
Elevation 300
METAR KSLG 211422Z AUTO VRB03KT 5SM BR OVC004 19/19 A3011 RMK AO2 CIG 003V007
Observed Flight Rules
May-21 @ 14:22 UTC
(33 minutes ago)
LIFR
Wind Visibility
Variable at 3 knots 5 miles
Clouds
  • Overcast at 400' AGL
Conditions
  • Mist
Temperature Dewpoint
19°C / 66°F 19°C / 66°F
Humidity Altimeter Pressure
100% 30.11" Hg 1020 hPa